Gooderham, Canada
Current Conditions -  °F | °C
As of 1:00 PM on Thursday 30 Oct 2014 (Local Time) from CYQA Reporting Station
Broken Clouds Broken Clouds  
Wind Chill:   Ceiling: 2800
Heat Index:   Visibility: 9mi
Dew Point: -1°   Wind: 9mph
Humidity: 65%   Direction: 290°WNW
Pressure: 30.04"   Gusts: NA
Location:  44.9°N, 78.38°W
Report Text: CYQA 301700Z AUTO 29008KT 260V350 9SM BKN028 05/M01 A3004 RMK SLP182
Loading
Personal Weather Stations






























Interactive Weather Map
Tropical Storm Tracking
New forecast layout! Learn more

10-Day Weather Forecast

Advertisements
Track Severe Weather on mobile